Time;durP1;ratioP1;P1;durP2;ratioP2;P2;SDS_P1;SDS_P2;PMS_P1;PMS_P2;Temp;Humidity;BMP_temperature;BMP_pressure;BME280_temperature;BME280_humidity;BME280_pressure;Samples;Min_cycle;Max_cycle;Signal;HPM_P1;HPM_P2
2023/06/30 00:01:48;;;;;;;10.40;10.10;;;20.90;99.90;;;;;;5061162;28;20236;-79
2023/06/30 00:04:17;;;;;;;10.13;9.82;;;20.90;99.90;;;;;;5049062;28;20266;-79
2023/06/30 00:06:49;;;;;;;10.20;9.90;;;20.90;99.90;;;;;;5040160;28;20243;-78
2023/06/30 00:09:17;;;;;;;10.20;9.90;;;20.90;99.90;;;;;;5038994;28;20231;-79
2023/06/30 00:11:46;;;;;;;10.35;10.05;;;20.90;99.90;;;;;;5039076;28;20243;-78
2023/06/30 00:14:22;;;;;;;10.13;9.82;;;20.90;99.90;;;;;;5038802;28;20235;-78
2023/06/30 00:16:56;;;;;;;10.05;9.75;;;20.80;99.90;;;;;;5038920;28;20224;-78
2023/06/30 00:19:26;;;;;;;10.02;9.73;;;20.80;99.90;;;;;;5039749;28;20235;-79
2023/06/30 00:21:54;;;;;;;10.00;9.70;;;20.80;99.90;;;;;;5039643;28;20225;-79
2023/06/30 00:24:23;;;;;;;10.10;9.80;;;20.70;99.90;;;;;;5048343;28;20226;-79
2023/06/30 00:26:51;;;;;;;10.10;9.80;;;20.70;99.90;;;;;;5048784;28;20219;-78
2023/06/30 00:29:22;;;;;;;10.20;9.90;;;20.70;99.90;;;;;;5045047;28;20246;-78
2023/06/30 00:31:52;;;;;;;9.90;9.60;;;20.70;99.90;;;;;;5046727;28;20255;-79
2023/06/30 00:34:21;;;;;;;10.05;9.75;;;20.60;99.90;;;;;;5042964;28;20255;-79
2023/06/30 00:36:49;;;;;;;10.00;9.70;;;20.60;99.90;;;;;;5041961;28;20322;-79
2023/06/30 00:39:17;;;;;;;10.40;10.10;;;20.60;99.90;;;;;;5039702;28;20327;-79
2023/06/30 00:41:44;;;;;;;10.55;10.25;;;20.60;99.90;;;;;;5038599;28;21143;-79
2023/06/30 00:44:12;;;;;;;10.40;10.10;;;20.60;99.90;;;;;;5038840;28;20239;-78
2023/06/30 00:46:41;;;;;;;10.30;10.00;;;20.60;99.90;;;;;;5038340;28;20241;-78
2023/06/30 00:49:10;;;;;;;10.50;10.20;;;20.60;99.90;;;;;;5038692;28;20231;-79
2023/06/30 00:51:39;;;;;;;10.50;10.20;;;20.60;99.90;;;;;;5038855;28;20299;-79
2023/06/30 00:54:09;;;;;;;10.65;10.35;;;20.60;99.90;;;;;;5039359;28;20291;-79
2023/06/30 00:56:38;;;;;;;10.20;9.90;;;20.60;99.90;;;;;;5039524;28;20259;-79
2023/06/30 00:59:07;;;;;;;10.30;10.00;;;20.60;99.90;;;;;;5043820;28;20318;-79
2023/06/30 01:01:50;;;;;;;10.30;10.00;;;20.60;99.90;;;;;;5043604;28;20274;-78
2023/06/30 01:04:26;;;;;;;9.90;9.60;;;20.60;99.90;;;;;;5041247;28;20238;-78
2023/06/30 01:07:03;;;;;;;9.95;9.65;;;20.60;99.90;;;;;;5040102;28;20234;-79
2023/06/30 01:09:39;;;;;;;10.20;9.90;;;20.50;99.90;;;;;;5039605;28;20294;-79
2023/06/30 01:12:09;;;;;;;10.25;9.95;;;20.50;99.90;;;;;;5039798;28;20365;-79
2023/06/30 01:14:39;;;;;;;10.55;10.25;;;20.40;99.90;;;;;;5041799;28;20270;-79
2023/06/30 01:17:11;;;;;;;10.90;10.60;;;20.40;99.90;;;;;;5038707;28;20235;-78
2023/06/30 01:19:44;;;;;;;10.18;9.88;;;20.40;99.90;;;;;;5040295;28;20211;-78
2023/06/30 01:22:22;;;;;;;9.98;9.68;;;20.40;99.90;;;;;;5038241;28;20254;-79
2023/06/30 01:24:54;;;;;;;10.50;10.20;;;20.30;99.90;;;;;;5039706;28;20223;-79
2023/06/30 01:27:23;;;;;;;10.60;10.30;;;20.20;99.90;;;;;;5042825;28;20332;-79
2023/06/30 01:29:53;;;;;;;10.63;10.32;;;20.10;99.90;;;;;;5041901;28;20254;-78
2023/06/30 01:32:24;;;;;;;10.40;10.10;;;20.10;99.90;;;;;;5042068;28;20238;-79
2023/06/30 01:34:52;;;;;;;10.60;10.30;;;20.00;99.90;;;;;;5050246;28;20718;-79
2023/06/30 01:37:21;;;;;;;10.63;10.32;;;20.00;99.90;;;;;;5062039;28;20326;-79
2023/06/30 01:39:50;;;;;;;10.60;10.30;;;19.90;99.90;;;;;;5061468;28;20299;-79
2023/06/30 01:42:21;;;;;;;10.50;10.20;;;19.90;99.90;;;;;;5062201;28;20242;-79
2023/06/30 01:44:49;;;;;;;10.68;10.38;;;19.90;99.90;;;;;;5070744;28;20299;-78
2023/06/30 01:47:19;;;;;;;10.63;10.32;;;19.90;99.90;;;;;;5066132;28;20254;-79
2023/06/30 01:49:49;;;;;;;10.60;10.30;;;19.90;99.90;;;;;;5080293;28;20230;-79
2023/06/30 01:52:28;;;;;;;10.77;10.48;;;19.90;99.90;;;;;;5067460;28;20246;-80
2023/06/30 01:54:56;;;;;;;10.68;10.38;;;19.90;99.90;;;;;;5066680;28;20251;-79
2023/06/30 01:57:24;;;;;;;10.70;10.40;;;19.90;99.90;;;;;;5062892;28;20258;-80
2023/06/30 01:59:53;;;;;;;10.50;10.20;;;19.90;99.90;;;;;;5063005;28;20230;-79
2023/06/30 02:02:22;;;;;;;10.57;10.27;;;19.90;99.90;;;;;;5062697;28;20230;-80
2023/06/30 02:04:51;;;;;;;10.50;10.20;;;19.80;99.90;;;;;;5062443;28;20234;-80
2023/06/30 02:07:23;;;;;;;10.50;10.20;;;19.70;99.90;;;;;;5063098;28;20249;-79
2023/06/30 02:09:52;;;;;;;10.38;10.07;;;19.70;99.90;;;;;;5062472;28;20222;-80
2023/06/30 02:12:22;;;;;;;10.57;10.27;;;19.70;99.90;;;;;;5062167;28;20670;-79
2023/06/30 02:14:51;;;;;;;10.40;10.10;;;19.60;99.90;;;;;;5061398;28;20238;-80
2023/06/30 02:17:31;;;;;;;10.40;10.10;;;19.60;99.90;;;;;;5061792;28;20235;-77
2023/06/30 02:20:05;;;;;;;10.85;10.55;;;19.60;99.90;;;;;;5059669;28;20233;-78
2023/06/30 02:22:32;;;;;;;10.43;10.13;;;19.60;99.90;;;;;;5060669;28;20249;-78
2023/06/30 02:25:00;;;;;;;10.30;10.00;;;19.60;99.90;;;;;;5059769;28;20231;-78
2023/06/30 02:27:28;;;;;;;10.50;10.20;;;19.60;99.90;;;;;;5053756;28;20234;-77
2023/06/30 02:30:04;;;;;;;10.57;10.27;;;19.60;99.90;;;;;;5041963;28;20231;-78
2023/06/30 02:32:32;;;;;;;10.48;10.18;;;19.60;99.90;;;;;;5060279;28;20288;-78
2023/06/30 02:35:01;;;;;;;10.40;10.10;;;19.60;99.90;;;;;;5060492;28;20230;-79
2023/06/30 02:37:29;;;;;;;10.40;10.10;;;19.60;99.90;;;;;;5059892;28;20330;-79
2023/06/30 02:39:57;;;;;;;10.43;10.13;;;19.60;99.90;;;;;;5061260;28;20250;-78
2023/06/30 02:42:26;;;;;;;10.27;9.98;;;19.60;99.90;;;;;;5060733;28;20329;-79
2023/06/30 02:44:56;;;;;;;10.45;10.15;;;19.60;99.90;;;;;;5061015;28;20230;-79
2023/06/30 02:47:25;;;;;;;10.27;9.98;;;19.60;99.90;;;;;;5060579;28;20388;-79
2023/06/30 02:49:54;;;;;;;10.30;10.00;;;19.60;99.90;;;;;;5044254;28;20235;-78
2023/06/30 02:52:24;;;;;;;10.50;10.20;;;19.60;99.90;;;;;;5040271;28;20243;-79
2023/06/30 02:54:52;;;;;;;10.23;9.93;;;19.60;99.90;;;;;;5041577;28;20242;-79
2023/06/30 02:57:23;;;;;;;11.00;10.70;;;19.60;99.90;;;;;;5059840;28;20234;-78
2023/06/30 02:59:52;;;;;;;10.85;10.55;;;19.50;99.90;;;;;;5060542;28;20226;-79
2023/06/30 03:02:20;;;;;;;11.10;10.80;;;19.40;99.90;;;;;;5060187;28;20244;-79
2023/06/30 03:04:49;;;;;;;10.90;10.60;;;19.40;99.90;;;;;;5059800;28;20314;-78
2023/06/30 03:07:19;;;;;;;11.05;10.75;;;19.30;99.90;;;;;;5061127;28;20226;-78
2023/06/30 03:09:53;;;;;;;11.30;11.00;;;19.30;99.90;;;;;;5060800;28;20238;-79
2023/06/30 03:12:20;;;;;;;11.20;10.90;;;19.30;99.90;;;;;;5065653;28;20287;-78
2023/06/30 03:14:48;;;;;;;10.73;10.43;;;19.30;99.90;;;;;;5073626;28;20226;-79
2023/06/30 03:17:16;;;;;;;11.50;11.10;;;19.30;99.90;;;;;;5060328;28;20226;-78
2023/06/30 03:19:44;;;;;;;11.10;10.80;;;19.20;99.90;;;;;;5061173;28;20317;-79
2023/06/30 03:22:11;;;;;;;11.20;10.90;;;19.20;99.90;;;;;;5061076;28;20245;-78
2023/06/30 03:24:40;;;;;;;11.10;10.80;;;19.20;99.90;;;;;;5059964;28;20296;-78
2023/06/30 03:27:13;;;;;;;11.20;10.90;;;19.20;99.90;;;;;;5059982;28;20231;-79
2023/06/30 03:29:42;;;;;;;10.80;10.50;;;19.10;99.90;;;;;;5060218;28;20215;-78
2023/06/30 03:32:09;;;;;;;11.10;10.80;;;19.10;99.90;;;;;;5059649;28;20245;-79
2023/06/30 03:34:37;;;;;;;11.20;10.90;;;19.10;99.90;;;;;;5059946;28;20233;-78
2023/06/30 03:37:05;;;;;;;10.98;10.68;;;19.00;99.90;;;;;;5059987;28;20241;-78
2023/06/30 03:39:34;;;;;;;11.10;10.80;;;18.90;99.90;;;;;;5061095;28;20223;-79
2023/06/30 03:42:04;;;;;;;11.20;10.90;;;18.90;99.90;;;;;;5059544;28;20266;-79
2023/06/30 03:44:35;;;;;;;11.00;10.70;;;18.90;99.90;;;;;;5060544;28;20292;-78
2023/06/30 03:47:03;;;;;;;11.20;10.90;;;18.80;99.90;;;;;;5063388;28;20391;-78
2023/06/30 03:49:31;;;;;;;11.13;10.82;;;18.80;99.90;;;;;;5065862;28;20319;-79
2023/06/30 03:52:01;;;;;;;11.48;11.10;;;18.80;99.90;;;;;;5066447;28;20254;-77
2023/06/30 03:54:30;;;;;;;11.15;10.85;;;18.80;99.90;;;;;;5067311;28;20286;-78
2023/06/30 03:56:59;;;;;;;10.98;10.68;;;18.80;99.90;;;;;;5063043;28;20227;-77
2023/06/30 03:59:28;;;;;;;11.27;10.98;;;18.80;99.90;;;;;;5061635;28;20235;-78
2023/06/30 04:01:59;;;;;;;11.10;10.80;;;18.80;99.90;;;;;;5060206;28;20306;-78
2023/06/30 04:04:28;;;;;;;11.07;10.77;;;18.80;99.90;;;;;;5059959;28;20234;-77
2023/06/30 04:06:57;;;;;;;11.10;10.80;;;18.80;99.90;;;;;;5059961;28;20305;-77
2023/06/30 04:09:27;;;;;;;11.07;10.77;;;18.80;99.90;;;;;;5061064;28;20241;-77
2023/06/30 04:11:55;;;;;;;11.52;11.13;;;18.90;99.90;;;;;;5059266;28;20241;-78
2023/06/30 04:14:24;;;;;;;11.10;10.80;;;18.90;99.90;;;;;;5061167;28;20321;-78
2023/06/30 04:16:53;;;;;;;11.35;10.95;;;18.90;99.90;;;;;;5051826;28;20299;-78
2023/06/30 04:19:23;;;;;;;11.38;10.98;;;18.90;99.90;;;;;;5040174;28;20314;-78
2023/06/30 04:21:50;;;;;;;11.48;11.07;;;18.90;99.90;;;;;;5057613;28;20226;-78
2023/06/30 04:24:19;;;;;;;11.40;11.00;;;18.90;99.90;;;;;;5060795;28;21011;-78
2023/06/30 04:26:47;;;;;;;11.00;10.70;;;18.90;99.90;;;;;;5060989;28;20231;-79
2023/06/30 04:29:16;;;;;;;11.32;10.93;;;18.90;99.90;;;;;;5061805;28;20288;-79
2023/06/30 04:31:46;;;;;;;11.30;10.90;;;18.90;99.90;;;;;;5060952;28;20253;-79
2023/06/30 04:34:15;;;;;;;11.10;10.80;;;19.00;99.90;;;;;;5046422;28;20234;-79
2023/06/30 04:36:49;;;;;;;11.32;10.93;;;19.00;99.90;;;;;;5063927;28;20237;-79
2023/06/30 04:39:16;;;;;;;10.80;10.50;;;19.00;99.90;;;;;;5066860;28;20251;-79
2023/06/30 04:41:44;;;;;;;11.00;10.70;;;19.00;99.90;;;;;;5065203;28;20294;-79
2023/06/30 04:44:13;;;;;;;11.00;10.70;;;19.10;99.90;;;;;;5063587;28;20289;-78
2023/06/30 04:46:42;;;;;;;11.00;10.70;;;19.10;99.90;;;;;;5062767;28;20230;-78
2023/06/30 04:49:10;;;;;;;10.90;10.60;;;19.10;99.90;;;;;;5039875;28;20227;-79
2023/06/30 04:51:40;;;;;;;10.98;10.68;;;19.20;99.90;;;;;;5054851;28;20334;-78
2023/06/30 04:54:11;;;;;;;10.82;10.52;;;19.20;99.90;;;;;;5058923;28;20232;-78
2023/06/30 04:56:39;;;;;;;10.90;10.60;;;19.20;99.90;;;;;;5051308;28;20230;-79
2023/06/30 04:59:09;;;;;;;11.07;10.77;;;19.20;99.90;;;;;;5055882;28;20701;-79
2023/06/30 05:01:39;;;;;;;11.20;10.90;;;19.30;99.90;;;;;;5048854;28;20241;-79
2023/06/30 05:04:08;;;;;;;11.57;11.18;;;19.30;99.90;;;;;;5053706;28;20229;-79
2023/06/30 05:06:39;;;;;;;11.60;11.20;;;19.40;99.90;;;;;;5062804;28;20323;-79
2023/06/30 05:09:08;;;;;;;11.30;10.90;;;19.40;99.90;;;;;;5063589;28;20219;-79
2023/06/30 05:11:36;;;;;;;11.38;10.98;;;19.40;99.90;;;;;;5061983;28;20248;-79
2023/06/30 05:14:06;;;;;;;11.35;10.95;;;19.50;99.90;;;;;;5062889;28;20243;-79
2023/06/30 05:16:36;;;;;;;11.57;11.18;;;19.60;99.90;;;;;;5063497;28;20234;-81
2023/06/30 05:19:05;;;;;;;11.40;11.00;;;19.60;99.90;;;;;;5065330;28;20258;-80
2023/06/30 05:21:36;;;;;;;11.15;10.82;;;19.70;99.90;;;;;;5065939;28;20277;-80
2023/06/30 05:24:05;;;;;;;11.20;10.80;;;19.80;99.90;;;;;;5063969;28;20270;-78
2023/06/30 05:26:34;;;;;;;11.30;10.90;;;19.80;99.90;;;;;;5063936;28;20218;-80
2023/06/30 05:29:04;;;;;;;11.52;11.13;;;19.80;99.90;;;;;;5065012;28;20231;-79
2023/06/30 05:31:31;;;;;;;11.80;11.40;;;19.90;99.90;;;;;;5064528;28;20398;-79
2023/06/30 05:33:59;;;;;;;11.27;10.88;;;20.10;99.90;;;;;;5043501;28;20231;-76
2023/06/30 05:36:26;;;;;;;11.30;10.90;;;20.30;99.90;;;;;;5062232;28;20338;-76
2023/06/30 05:38:54;;;;;;;11.30;10.90;;;20.40;99.90;;;;;;5043609;28;20228;-77
2023/06/30 05:41:21;;;;;;;11.38;10.98;;;20.60;99.90;;;;;;5058564;28;20238;-78
2023/06/30 05:43:50;;;;;;;11.38;10.98;;;20.70;99.90;;;;;;5058673;28;20234;-75
2023/06/30 05:46:18;;;;;;;11.55;11.15;;;20.80;99.90;;;;;;5058963;28;20235;-76
2023/06/30 05:48:45;;;;;;;10.90;10.60;;;21.00;99.90;;;;;;5054015;28;20238;-77
2023/06/30 05:51:12;;;;;;;11.43;11.02;;;21.20;99.90;;;;;;5059717;28;20245;-77
2023/06/30 05:53:40;;;;;;;11.15;10.85;;;21.30;99.90;;;;;;5059321;28;20326;-76
2023/06/30 05:56:07;;;;;;;11.45;11.05;;;21.50;99.90;;;;;;5058701;28;20257;-77
2023/06/30 05:58:37;;;;;;;11.35;10.98;;;21.60;99.90;;;;;;5058932;28;20602;-77
2023/06/30 06:01:07;;;;;;;10.95;10.65;;;21.70;99.90;;;;;;5060076;28;20277;-77
2023/06/30 06:03:34;;;;;;;10.90;10.60;;;21.80;99.90;;;;;;5063165;28;20231;-77
2023/06/30 06:06:02;;;;;;;11.20;10.90;;;21.90;99.90;;;;;;5063315;28;20237;-77
2023/06/30 06:08:29;;;;;;;11.05;10.75;;;22.00;99.90;;;;;;5063506;28;20221;-76
2023/06/30 06:10:56;;;;;;;11.43;11.02;;;22.10;99.90;;;;;;5062326;28;20249;-77
2023/06/30 06:13:34;;;;;;;11.40;11.00;;;22.20;99.90;;;;;;5058252;28;20331;-76
2023/06/30 06:16:02;;;;;;;11.20;10.90;;;22.30;99.90;;;;;;5058868;28;20234;-76
2023/06/30 06:18:31;;;;;;;11.15;10.85;;;22.30;99.90;;;;;;5058923;28;20229;-77
2023/06/30 06:20:59;;;;;;;11.20;10.90;;;22.30;99.90;;;;;;5058376;28;20302;-77
2023/06/30 06:23:26;;;;;;;11.10;10.80;;;22.40;99.90;;;;;;5058330;28;20231;-77
2023/06/30 06:25:54;;;;;;;10.70;10.40;;;22.50;99.90;;;;;;5058292;28;20241;-77
2023/06/30 06:28:22;;;;;;;11.20;10.90;;;22.60;99.90;;;;;;5057409;28;20231;-76
2023/06/30 06:30:50;;;;;;;10.80;10.50;;;22.70;99.90;;;;;;5060373;28;20241;-77
2023/06/30 06:33:17;;;;;;;10.73;10.43;;;22.70;99.90;;;;;;5062241;28;20231;-75
2023/06/30 06:35:46;;;;;;;10.88;10.57;;;22.70;99.90;;;;;;5061500;28;20322;-75
2023/06/30 06:38:17;;;;;;;11.05;10.75;;;22.70;99.90;;;;;;5060526;28;20322;-75
2023/06/30 06:40:45;;;;;;;11.35;11.00;;;22.70;99.90;;;;;;5057882;28;20240;-75
2023/06/30 06:43:13;;;;;;;11.13;10.82;;;22.60;99.90;;;;;;5056361;28;20241;-76
2023/06/30 06:45:41;;;;;;;11.20;10.90;;;22.60;99.90;;;;;;5057735;28;20325;-77
2023/06/30 06:48:23;;;;;;;11.15;10.85;;;22.60;99.90;;;;;;5058057;28;20293;-79
2023/06/30 06:50:53;;;;;;;11.10;10.80;;;22.50;99.90;;;;;;5060111;28;20235;-75
2023/06/30 06:53:24;;;;;;;11.07;10.77;;;22.60;99.90;;;;;;5057174;28;20332;-76
2023/06/30 06:55:53;;;;;;;10.82;10.52;;;22.60;99.90;;;;;;5055967;28;20226;-75
2023/06/30 06:58:22;;;;;;;10.82;10.52;;;22.70;99.90;;;;;;5058355;28;20235;-76
2023/06/30 07:00:51;;;;;;;10.65;10.35;;;22.90;99.90;;;;;;5056870;28;20230;-77
2023/06/30 07:03:19;;;;;;;10.57;10.27;;;23.00;99.90;;;;;;5059620;28;20314;-79
2023/06/30 07:05:47;;;;;;;10.90;10.60;;;23.10;99.90;;;;;;5059082;28;20235;-79
2023/06/30 07:08:20;;;;;;;10.57;10.27;;;23.20;99.90;;;;;;5060282;28;20239;-79
2023/06/30 07:10:50;;;;;;;10.65;10.35;;;23.20;99.90;;;;;;5061569;28;20230;-80
2023/06/30 07:13:25;;;;;;;10.80;10.50;;;23.40;99.90;;;;;;5063577;28;20249;-79
2023/06/30 07:15:53;;;;;;;10.50;10.20;;;23.50;99.90;;;;;;5071076;28;20242;-80
2023/06/30 07:18:22;;;;;;;10.30;10.00;;;23.50;99.90;;;;;;5067702;28;20241;-77
2023/06/30 07:20:52;;;;;;;10.32;10.02;;;23.60;99.90;;;;;;5063164;28;20233;-78
2023/06/30 07:23:22;;;;;;;10.75;10.45;;;23.50;99.90;;;;;;5065354;28;20249;-78
2023/06/30 07:25:51;;;;;;;10.57;10.27;;;23.70;99.90;;;;;;5062969;28;20234;-79
2023/06/30 07:28:19;;;;;;;10.90;10.60;;;23.70;99.90;;;;;;5062304;28;20234;-79
2023/06/30 07:30:48;;;;;;;10.60;10.30;;;23.90;99.90;;;;;;5061813;28;20294;-79
2023/06/30 07:33:16;;;;;;;10.70;10.40;;;24.00;99.90;;;;;;5061347;28;20242;-79
2023/06/30 07:35:44;;;;;;;11.10;10.80;;;24.10;99.90;;;;;;5062469;28;20235;-79
2023/06/30 07:38:11;;;;;;;11.18;10.88;;;24.20;99.90;;;;;;5067923;28;20313;-79
2023/06/30 07:40:41;;;;;;;11.20;10.90;;;24.20;99.90;;;;;;5062566;28;20258;-79
2023/06/30 07:43:09;;;;;;;11.10;10.80;;;24.30;99.90;;;;;;5061588;28;20230;-79
2023/06/30 07:45:37;;;;;;;11.27;10.98;;;24.40;99.90;;;;;;5060958;28;20342;-79
2023/06/30 07:48:07;;;;;;;11.25;10.95;;;24.50;99.90;;;;;;5062517;28;20241;-79
2023/06/30 07:50:35;;;;;;;10.70;10.40;;;24.50;99.90;;;;;;5062271;28;20234;-79
2023/06/30 07:53:08;;;;;;;11.10;10.80;;;24.70;99.90;;;;;;5061059;28;20249;-81
2023/06/30 07:55:35;;;;;;;10.98;10.68;;;24.80;99.90;;;;;;5061835;28;20223;-80
2023/06/30 07:58:06;;;;;;;11.00;10.70;;;25.00;99.90;;;;;;5062448;28;20283;-80
2023/06/30 08:00:35;;;;;;;11.10;10.80;;;24.90;99.90;;;;;;5060226;28;20305;-79
2023/06/30 08:03:03;;;;;;;11.10;10.80;;;25.00;99.90;;;;;;5069434;28;20239;-79
2023/06/30 08:05:35;;;;;;;11.23;10.93;;;25.20;99.90;;;;;;5072902;28;20290;-78
2023/06/30 08:08:02;;;;;;;11.18;10.88;;;25.50;99.90;;;;;;5062294;28;20226;-79
2023/06/30 08:10:30;;;;;;;11.77;11.38;;;25.70;99.90;;;;;;5062399;28;20288;-79
2023/06/30 08:12:58;;;;;;;11.40;11.10;;;25.80;99.90;;;;;;5060658;28;20281;-79
2023/06/30 08:15:27;;;;;;;11.93;11.52;;;25.80;99.90;;;;;;5064731;28;20218;-78
2023/06/30 08:17:54;;;;;;;11.73;11.32;;;25.80;99.90;;;;;;5070994;28;20298;-78
2023/06/30 08:20:22;;;;;;;11.90;11.50;;;25.80;99.90;;;;;;5067666;28;20230;-79
2023/06/30 08:22:49;;;;;;;12.10;11.70;;;25.90;99.90;;;;;;5062927;28;20235;-79
2023/06/30 08:25:17;;;;;;;11.38;11.07;;;26.00;99.90;;;;;;5060767;28;20236;-79
2023/06/30 08:27:45;;;;;;;11.38;11.07;;;26.10;99.90;;;;;;5058783;28;20429;-79
2023/06/30 08:30:12;;;;;;;11.23;10.93;;;25.80;99.90;;;;;;5059285;28;20334;-78
2023/06/30 08:32:42;;;;;;;11.40;11.10;;;25.80;99.90;;;;;;5058401;28;20236;-78
2023/06/30 08:35:10;;;;;;;11.57;11.27;;;25.90;99.90;;;;;;5057902;28;20385;-79
2023/06/30 08:37:40;;;;;;;11.60;11.30;;;26.00;99.90;;;;;;5059619;28;20749;-79
2023/06/30 08:40:09;;;;;;;11.30;11.00;;;26.00;99.90;;;;;;5059837;28;20249;-78
2023/06/30 08:42:41;;;;;;;11.30;11.00;;;26.10;99.90;;;;;;5059677;28;20239;-79
2023/06/30 08:45:10;;;;;;;11.15;10.85;;;26.30;99.90;;;;;;5058778;28;20270;-79
2023/06/30 08:47:39;;;;;;;10.98;10.68;;;26.50;99.90;;;;;;5061521;28;20283;-79
2023/06/30 08:50:09;;;;;;;11.25;10.95;;;26.80;99.90;;;;;;5061162;28;20285;-79
2023/06/30 08:52:37;;;;;;;11.18;10.88;;;26.90;99.90;;;;;;5059666;28;20298;-79
2023/06/30 08:55:08;;;;;;;11.10;10.80;;;27.10;99.90;;;;;;5060567;28;20318;-78
2023/06/30 08:57:36;;;;;;;10.80;10.50;;;27.00;99.90;;;;;;5059686;28;20230;-80
2023/06/30 09:00:06;;;;;;;10.80;10.50;;;26.90;99.90;;;;;;5063129;28;20244;-79
2023/06/30 09:02:34;;;;;;;10.88;10.57;;;26.90;99.90;;;;;;5065322;28;20231;-78
2023/06/30 09:05:04;;;;;;;10.80;10.50;;;27.20;99.90;;;;;;5063124;28;20268;-80
2023/06/30 09:07:42;;;;;;;10.80;10.50;;;27.40;99.90;;;;;;5065036;28;20238;-79
2023/06/30 09:10:12;;;;;;;10.88;10.57;;;27.40;99.90;;;;;;5063461;28;20231;-79
2023/06/30 09:12:42;;;;;;;10.93;10.63;;;27.30;99.90;;;;;;5063317;28;20238;-81
2023/06/30 09:15:11;;;;;;;11.07;10.77;;;27.40;99.90;;;;;;5061034;28;20237;-80
2023/06/30 09:17:39;;;;;;;11.10;10.80;;;27.60;99.90;;;;;;5061335;28;20246;-79
2023/06/30 09:20:09;;;;;;;10.90;10.60;;;28.00;99.90;;;;;;5070328;28;20230;-80
2023/06/30 09:22:40;;;;;;;11.05;10.75;;;28.10;99.90;;;;;;5065094;28;20245;-80
2023/06/30 09:25:09;;;;;;;11.18;10.88;;;28.30;99.90;;;;;;5064716;28;20262;-80
2023/06/30 09:27:36;;;;;;;11.13;10.82;;;28.30;99.90;;;;;;5062191;28;20223;-80
2023/06/30 09:30:05;;;;;;;11.02;10.73;;;28.60;99.90;;;;;;5061143;28;20269;-81
2023/06/30 09:32:33;;;;;;;10.88;10.57;;;28.60;99.90;;;;;;5060116;28;20273;-79
2023/06/30 09:35:07;;;;;;;11.02;10.73;;;28.70;99.90;;;;;;5060800;28;20235;-81
2023/06/30 09:37:42;;;;;;;10.48;10.18;;;28.80;99.90;;;;;;5062736;28;20223;-81
2023/06/30 09:40:14;;;;;;;10.63;10.32;;;28.70;99.90;;;;;;5062258;28;20235;-82
2023/06/30 09:42:43;;;;;;;10.68;10.38;;;28.90;99.90;;;;;;5058894;28;20269;-77
2023/06/30 09:45:12;;;;;;;10.80;10.50;;;29.10;99.90;;;;;;5056688;28;20241;-77
2023/06/30 09:47:39;;;;;;;10.70;10.40;;;29.40;99.90;;;;;;5056690;28;20318;-76
2023/06/30 09:50:09;;;;;;;11.77;11.40;;;29.20;99.90;;;;;;5059804;28;20285;-76
2023/06/30 09:52:38;;;;;;;11.80;11.40;;;29.20;99.90;;;;;;5058930;28;20238;-77
2023/06/30 09:55:10;;;;;;;11.95;11.55;;;29.20;99.90;;;;;;5060582;28;20238;-77
2023/06/30 09:57:41;;;;;;;12.15;11.75;;;29.20;99.90;;;;;;5059309;28;20253;-77
2023/06/30 10:00:10;;;;;;;12.30;11.90;;;28.90;99.90;;;;;;5059599;28;20289;-76
2023/06/30 10:02:39;;;;;;;11.98;11.57;;;28.70;99.90;;;;;;5058806;28;20326;-78
2023/06/30 10:05:08;;;;;;;11.90;11.50;;;28.50;99.90;;;;;;5059203;28;20289;-77
2023/06/30 10:07:39;;;;;;;11.63;11.32;;;28.30;99.90;;;;;;5059573;28;20227;-77
2023/06/30 10:10:11;;;;;;;11.65;11.35;;;28.00;99.90;;;;;;5060019;28;20227;-77
2023/06/30 10:12:43;;;;;;;11.32;11.02;;;27.80;99.90;;;;;;5060024;28;20273;-78
2023/06/30 10:15:24;;;;;;;10.93;10.63;;;27.70;99.90;;;;;;5060807;28;20245;-77
2023/06/30 10:17:54;;;;;;;11.25;10.95;;;27.60;99.90;;;;;;5069484;28;20239;-77
2023/06/30 10:20:22;;;;;;;10.90;10.60;;;27.30;99.90;;;;;;5060417;28;20325;-77
2023/06/30 10:22:53;;;;;;;11.23;10.93;;;27.10;99.90;;;;;;5059284;28;20237;-78
2023/06/30 10:25:26;;;;;;;11.10;10.80;;;26.90;99.90;;;;;;5059873;28;20334;-76
2023/06/30 10:27:53;;;;;;;11.20;10.90;;;26.80;99.90;;;;;;5060391;28;20262;-77
2023/06/30 10:30:21;;;;;;;11.20;10.90;;;26.50;99.90;;;;;;5060241;28;20380;-78
2023/06/30 10:32:49;;;;;;;11.50;11.20;;;26.10;99.90;;;;;;5061257;28;20305;-78
2023/06/30 10:35:17;;;;;;;11.93;11.52;;;24.80;99.90;;;;;;5061201;28;20330;-77
2023/06/30 10:37:45;;;;;;;11.80;11.40;;;23.90;99.90;;;;;;5043907;28;20322;-77
2023/06/30 10:40:26;;;;;;;12.40;12.00;;;23.40;99.90;;;;;;5040935;28;20314;-77
2023/06/30 10:42:55;;;;;;;12.10;11.70;;;23.20;99.90;;;;;;5040532;28;20234;-77
2023/06/30 10:45:29;;;;;;;11.95;11.55;;;23.00;99.90;;;;;;5058292;28;20246;-77
2023/06/30 10:47:57;;;;;;;11.18;10.88;;;23.00;99.90;;;;;;5069073;28;20528;-76
2023/06/30 10:50:25;;;;;;;10.95;10.65;;;23.00;99.90;;;;;;5066955;28;20230;-78
2023/06/30 10:52:54;;;;;;;11.10;10.80;;;23.10;99.90;;;;;;5060555;28;20245;-77
2023/06/30 10:55:28;;;;;;;10.75;10.45;;;23.30;99.90;;;;;;5059764;28;20234;-77
2023/06/30 10:58:02;;;;;;;10.50;10.20;;;23.40;99.90;;;;;;5059369;28;20238;-77
2023/06/30 11:00:32;;;;;;;10.60;10.30;;;23.60;99.90;;;;;;5058490;28;20230;-76
2023/06/30 11:03:04;;;;;;;11.02;10.73;;;23.80;99.90;;;;;;5058495;28;20239;-78
2023/06/30 11:05:33;;;;;;;10.80;10.50;;;24.10;99.90;;;;;;5059714;28;20246;-76
2023/06/30 11:08:08;;;;;;;11.00;10.70;;;24.40;99.90;;;;;;5059449;28;20338;-76
2023/06/30 11:10:46;;;;;;;11.30;11.00;;;24.70;99.90;;;;;;5060016;28;20222;-77
2023/06/30 11:13:14;;;;;;;10.95;10.65;;;25.00;99.90;;;;;;5058237;28;20241;-78
2023/06/30 11:15:48;;;;;;;10.93;10.63;;;25.30;99.90;;;;;;5065451;28;20310;-76
2023/06/30 11:18:17;;;;;;;10.68;10.38;;;25.70;99.90;;;;;;5058466;28;20716;-77
2023/06/30 11:21:08;;;;;;;10.82;10.52;;;26.00;99.90;;;;;;5067657;28;20219;-75
2023/06/30 11:23:38;;;;;;;10.27;9.98;;;26.10;99.90;;;;;;5045490;28;20241;-77
2023/06/30 11:26:16;;;;;;;10.27;9.98;;;26.20;99.90;;;;;;5058386;28;20216;-77
2023/06/30 11:28:47;;;;;;;10.60;10.30;;;26.20;99.90;;;;;;5060742;28;20321;-77
2023/06/30 11:31:15;;;;;;;10.65;10.35;;;25.60;99.90;;;;;;5059791;28;20235;-77
2023/06/30 11:33:43;;;;;;;10.70;10.40;;;24.80;99.90;;;;;;5061613;28;20234;-77
2023/06/30 11:36:14;;;;;;;10.90;10.60;;;24.20;99.90;;;;;;5058401;28;20294;-75
2023/06/30 11:38:45;;;;;;;10.85;10.55;;;23.70;99.90;;;;;;5057602;28;20223;-76
2023/06/30 11:41:20;;;;;;;11.10;10.80;;;23.30;99.90;;;;;;5063847;28;20233;-76
2023/06/30 11:43:50;;;;;;;11.57;11.18;;;23.10;99.90;;;;;;5060427;28;20302;-76
2023/06/30 11:46:17;;;;;;;12.00;11.60;;;23.00;99.90;;;;;;5063089;28;20227;-76
2023/06/30 11:48:45;;;;;;;11.45;11.05;;;22.90;99.90;;;;;;5062964;28;20313;-75
2023/06/30 11:51:13;;;;;;;11.25;10.93;;;22.80;99.90;;;;;;5060875;28;20240;-76
2023/06/30 11:53:44;;;;;;;11.20;10.90;;;22.80;99.90;;;;;;5063705;28;20238;-74
2023/06/30 11:56:13;;;;;;;10.95;10.65;;;22.80;99.90;;;;;;5066368;28;20231;-76
2023/06/30 11:58:44;;;;;;;10.80;10.50;;;22.80;99.90;;;;;;5064554;28;20266;-75
2023/06/30 12:01:12;;;;;;;10.63;10.32;;;22.70;99.90;;;;;;5067068;28;20298;-75
2023/06/30 12:03:39;;;;;;;10.52;10.23;;;22.60;99.90;;;;;;5061001;28;20318;-77
2023/06/30 12:06:07;;;;;;;10.63;10.32;;;22.70;99.90;;;;;;5060788;28;20330;-76
2023/06/30 12:08:38;;;;;;;10.50;10.20;;;22.80;99.90;;;;;;5060542;28;20230;-76
2023/06/30 12:11:07;;;;;;;10.38;10.07;;;23.00;99.90;;;;;;5058348;28;20230;-76
2023/06/30 12:13:36;;;;;;;10.80;10.50;;;23.40;99.90;;;;;;5054440;28;20971;-76
2023/06/30 12:16:04;;;;;;;10.70;10.40;;;23.90;99.90;;;;;;5041099;28;20239;-76
2023/06/30 12:18:36;;;;;;;11.00;10.70;;;24.20;99.90;;;;;;5040216;28;20238;-76
2023/06/30 12:21:07;;;;;;;10.95;10.65;;;24.40;99.90;;;;;;5037861;28;20286;-76
2023/06/30 12:23:40;;;;;;;11.00;10.70;;;24.50;99.90;;;;;;5039828;28;20261;-76
2023/06/30 12:26:08;;;;;;;10.80;10.50;;;24.70;99.90;;;;;;5040428;28;20235;-77
2023/06/30 12:28:37;;;;;;;11.00;10.70;;;24.90;99.90;;;;;;5036303;28;20231;-77
2023/06/30 12:31:05;;;;;;;10.93;10.63;;;25.10;99.90;;;;;;5037676;28;20232;-77
2023/06/30 12:33:32;;;;;;;10.88;10.57;;;25.20;99.90;;;;;;5035911;28;20235;-77
2023/06/30 12:36:00;;;;;;;10.80;10.50;;;25.30;99.90;;;;;;5035927;28;20297;-76
2023/06/30 12:38:27;;;;;;;10.90;10.60;;;25.30;99.90;;;;;;5036202;28;20268;-76
2023/06/30 12:40:55;;;;;;;10.68;10.38;;;25.30;99.90;;;;;;5036527;28;20239;-76